Time;durP1;ratioP1;P1;durP2;ratioP2;P2;SDS_P1;SDS_P2;PMS_P1;PMS_P2;Temp;Humidity;BMP_temperature;BMP_pressure;BME280_temperature;BME280_humidity;BME280_pressure;Samples;Min_cycle;Max_cycle;Signal;HPM_P1;HPM_P2
2022/10/17 00:01:12;;;;;;;9.52;4.40;;;;;;;;;;5073330;28;20051;-76
2022/10/17 00:03:38;;;;;;;8.10;4.75;;;;;;;;;;5073139;28;20139;-76
2022/10/17 00:06:08;;;;;;;8.32;4.60;;;;;;;;;;5056560;28;20032;-75
2022/10/17 00:08:34;;;;;;;10.40;4.47;;;;;;;;;;5075092;28;20131;-75
2022/10/17 00:11:02;;;;;;;7.75;4.78;;;;;;;;;;5039827;28;20186;-75
2022/10/17 00:13:27;;;;;;;6.22;4.03;;;;;;;;;;5072204;28;20035;-77
2022/10/17 00:15:53;;;;;;;7.60;4.45;;;;;;;;;;5072285;28;20119;-75
2022/10/17 00:18:21;;;;;;;10.00;4.25;;;;;;;;;;5089419;28;20082;-76
2022/10/17 00:20:46;;;;;;;7.93;4.25;;;;;;;;;;5072906;28;20044;-75
2022/10/17 00:23:13;;;;;;;9.05;3.95;;;;;;;;;;5088854;28;20036;-76
2022/10/17 00:25:39;;;;;;;11.50;4.35;;;;;;;;;;5070605;28;20138;-76
2022/10/17 00:28:07;;;;;;;8.52;3.97;;;;;;;;;;5037680;28;20033;-76
2022/10/17 00:30:33;;;;;;;7.28;4.38;;;;;;;;;;5070178;28;20447;-76
2022/10/17 00:32:58;;;;;;;8.60;4.22;;;;;;;;;;5070339;28;20038;-76
2022/10/17 00:35:24;;;;;;;7.57;3.95;;;;;;;;;;5070987;28;20119;-76
2022/10/17 00:37:49;;;;;;;6.93;3.95;;;;;;;;;;5070266;28;20040;-77
2022/10/17 00:40:16;;;;;;;8.15;4.63;;;;;;;;;;5072110;28;20576;-76
2022/10/17 00:42:41;;;;;;;7.78;5.00;;;;;;;;;;5073580;28;20058;-76
2022/10/17 00:45:27;;;;;;;6.53;3.70;;;;;;;;;;5072302;28;20149;-76
2022/10/17 00:47:55;;;;;;;8.55;4.07;;;;;;;;;;5072214;28;20048;-76
2022/10/17 00:50:20;;;;;;;7.43;4.10;;;;;;;;;;5055418;28;20063;-76
2022/10/17 00:52:48;;;;;;;7.30;4.05;;;;;;;;;;5088970;28;20550;-76
2022/10/17 00:55:23;;;;;;;9.48;4.28;;;;;;;;;;5055223;28;20132;-75
2022/10/17 00:57:49;;;;;;;9.10;4.40;;;;;;;;;;5072401;28;20044;-76
2022/10/17 01:00:18;;;;;;;9.68;4.97;;;;;;;;;;5055406;28;20426;-75
2022/10/17 01:02:44;;;;;;;9.77;4.10;;;;;;;;;;5089517;28;20040;-75
2022/10/17 01:05:09;;;;;;;7.15;4.18;;;;;;;;;;5089068;28;20051;-74
2022/10/17 01:07:36;;;;;;;10.35;4.40;;;;;;;;;;5055340;28;20036;-76
2022/10/17 01:10:02;;;;;;;8.90;4.53;;;;;;;;;;5071941;28;20043;-78
2022/10/17 01:12:31;;;;;;;10.75;4.35;;;;;;;;;;5038825;28;20033;-78
2022/10/17 01:15:05;;;;;;;11.30;4.32;;;;;;;;;;5072243;28;20040;-77
2022/10/17 01:17:49;;;;;;;8.98;4.75;;;;;;;;;;5089221;28;20078;-77
2022/10/17 01:20:34;;;;;;;8.80;4.63;;;;;;;;;;5039895;28;20123;-78
2022/10/17 01:23:18;;;;;;;7.35;4.65;;;;;;;;;;5039448;28;20089;-78
2022/10/17 01:26:11;;;;;;;7.75;4.70;;;;;;;;;;5071769;28;20051;-76
2022/10/17 01:28:42;;;;;;;6.95;4.47;;;;;;;;;;5069491;28;20363;-76
2022/10/17 01:31:11;;;;;;;8.45;4.30;;;;;;;;;;5074788;28;20036;-76
2022/10/17 01:33:52;;;;;;;7.57;4.55;;;;;;;;;;5074743;28;20432;-75
2022/10/17 01:36:26;;;;;;;7.28;4.10;;;;;;;;;;5076762;28;20115;-78
2022/10/17 01:39:01;;;;;;;6.75;4.32;;;;;;;;;;5073664;28;20037;-77
2022/10/17 01:41:26;;;;;;;10.13;4.20;;;;;;;;;;5075462;28;20044;-77
2022/10/17 01:43:59;;;;;;;8.73;3.92;;;;;;;;;;5042722;28;20048;-78
2022/10/17 01:46:31;;;;;;;8.27;4.30;;;;;;;;;;5058620;28;20063;-78
2022/10/17 01:48:59;;;;;;;6.40;4.63;;;;;;;;;;5040278;28;20032;-78
2022/10/17 01:51:30;;;;;;;6.07;4.07;;;;;;;;;;5072998;28;20123;-79
2022/10/17 01:53:59;;;;;;;7.03;3.90;;;;;;;;;;5073623;28;20093;-78
2022/10/17 01:56:27;;;;;;;6.65;4.40;;;;;;;;;;5044855;28;20040;-78
2022/10/17 01:58:56;;;;;;;8.93;4.72;;;;;;;;;;5079740;28;20043;-77
2022/10/17 02:01:23;;;;;;;8.07;4.63;;;;;;;;;;5062747;28;20135;-77
2022/10/17 02:03:49;;;;;;;5.88;4.05;;;;;;;;;;5076316;28;20378;-77
2022/10/17 02:06:15;;;;;;;8.43;4.32;;;;;;;;;;5059188;28;20037;-77
2022/10/17 02:08:42;;;;;;;6.63;3.88;;;;;;;;;;5074666;28;20459;-77
2022/10/17 02:11:19;;;;;;;8.82;4.50;;;;;;;;;;5075157;28;20040;-77
2022/10/17 02:13:47;;;;;;;6.10;4.13;;;;;;;;;;5074437;28;20063;-77
2022/10/17 02:16:32;;;;;;;11.57;4.82;;;;;;;;;;5057976;28;20041;-77
2022/10/17 02:19:05;;;;;;;8.90;4.50;;;;;;;;;;5062061;28;20059;-77
2022/10/17 02:21:57;;;;;;;7.13;4.60;;;;;;;;;;5065850;28;20040;-76
2022/10/17 02:24:26;;;;;;;7.70;4.68;;;;;;;;;;5043966;28;20033;-77
2022/10/17 02:26:55;;;;;;;6.57;4.43;;;;;;;;;;5042568;28;20193;-77
2022/10/17 02:29:33;;;;;;;7.95;4.05;;;;;;;;;;5060314;28;20036;-77
2022/10/17 02:32:05;;;;;;;13.50;4.30;;;;;;;;;;5082889;28;20048;-82
2022/10/17 02:34:39;;;;;;;7.07;4.20;;;;;;;;;;5095796;28;20037;-78
2022/10/17 02:37:05;;;;;;;6.15;4.28;;;;;;;;;;5075673;28;20174;-79
2022/10/17 02:39:39;;;;;;;6.70;4.78;;;;;;;;;;5076068;28;20036;-80
2022/10/17 02:42:06;;;;;;;6.65;4.03;;;;;;;;;;5075865;28;20028;-79
2022/10/17 02:44:32;;;;;;;7.75;4.18;;;;;;;;;;5041569;28;20056;-79
2022/10/17 02:47:10;;;;;;;9.00;5.13;;;;;;;;;;5075583;28;20033;-79
2022/10/17 02:49:38;;;;;;;9.90;4.45;;;;;;;;;;5042486;28;20467;-79
2022/10/17 02:52:14;;;;;;;6.28;4.10;;;;;;;;;;5075733;28;20047;-80
2022/10/17 02:54:43;;;;;;;11.30;4.55;;;;;;;;;;5043270;28;20161;-80
2022/10/17 02:57:24;;;;;;;8.15;4.68;;;;;;;;;;5042285;28;20340;-79
2022/10/17 02:59:50;;;;;;;7.30;4.20;;;;;;;;;;5074410;28;20032;-78
2022/10/17 03:02:15;;;;;;;7.05;4.30;;;;;;;;;;5090912;28;20048;-80
2022/10/17 03:04:45;;;;;;;6.75;4.38;;;;;;;;;;5041385;28;20108;-79
2022/10/17 03:07:10;;;;;;;8.55;4.40;;;;;;;;;;5075142;28;20040;-80
2022/10/17 03:09:37;;;;;;;9.93;4.47;;;;;;;;;;5057443;28;20339;-78
2022/10/17 03:12:03;;;;;;;10.90;4.32;;;;;;;;;;5074217;28;20048;-78
2022/10/17 03:14:29;;;;;;;10.50;4.30;;;;;;;;;;5058584;28;20040;-77
2022/10/17 03:16:55;;;;;;;8.23;4.45;;;;;;;;;;5058248;28;20051;-78
2022/10/17 03:19:20;;;;;;;9.02;4.80;;;;;;;;;;5041119;28;20474;-79
2022/10/17 03:21:47;;;;;;;10.85;4.95;;;;;;;;;;5093366;28;20119;-79
2022/10/17 03:24:13;;;;;;;13.13;5.60;;;;;;;;;;5059819;28;20074;-78
2022/10/17 03:26:39;;;;;;;9.43;4.88;;;;;;;;;;5074747;28;20071;-79
2022/10/17 03:29:05;;;;;;;8.73;4.25;;;;;;;;;;5040951;28;20029;-79
2022/10/17 03:31:33;;;;;;;10.85;5.20;;;;;;;;;;5041887;28;20081;-80
2022/10/17 03:34:00;;;;;;;7.22;4.65;;;;;;;;;;5042310;28;20033;-79
2022/10/17 03:36:29;;;;;;;11.18;4.50;;;;;;;;;;5077118;28;20059;-80
2022/10/17 03:38:55;;;;;;;8.25;5.22;;;;;;;;;;5060814;28;20036;-80
2022/10/17 03:41:22;;;;;;;6.25;4.53;;;;;;;;;;5043609;28;20127;-79
2022/10/17 03:43:47;;;;;;;7.10;4.68;;;;;;;;;;5040637;28;20052;-79
2022/10/17 03:46:13;;;;;;;7.15;4.93;;;;;;;;;;5039766;28;20028;-79
2022/10/17 03:48:41;;;;;;;9.35;4.50;;;;;;;;;;5043743;28;20040;-80
2022/10/17 03:51:08;;;;;;;7.45;4.90;;;;;;;;;;5076133;28;20044;-80
2022/10/17 03:53:54;;;;;;;8.85;3.95;;;;;;;;;;5058381;28;20028;-80
2022/10/17 03:56:22;;;;;;;12.77;5.15;;;;;;;;;;5058973;28;20044;-79
2022/10/17 03:59:13;;;;;;;12.23;4.90;;;;;;;;;;5072669;28;20113;-79
2022/10/17 04:01:38;;;;;;;9.90;4.47;;;;;;;;;;5072870;28;20055;-81
2022/10/17 04:04:04;;;;;;;12.18;5.57;;;;;;;;;;5073833;28;20458;-81
2022/10/17 04:06:33;;;;;;;6.75;4.47;;;;;;;;;;5057263;28;20117;-81
2022/10/17 04:09:00;;;;;;;14.60;5.00;;;;;;;;;;5060641;28;20032;-79
2022/10/17 04:11:33;;;;;;;7.47;4.90;;;;;;;;;;5093578;28;20138;-78
2022/10/17 04:14:00;;;;;;;7.05;4.60;;;;;;;;;;5060201;28;20086;-76
2022/10/17 04:16:28;;;;;;;12.50;5.22;;;;;;;;;;5109006;28;20044;-76
2022/10/17 04:19:03;;;;;;;9.15;4.75;;;;;;;;;;5061300;28;20050;-78
2022/10/17 04:21:35;;;;;;;11.60;4.75;;;;;;;;;;5110095;28;20119;-79
2022/10/17 04:24:05;;;;;;;7.05;4.57;;;;;;;;;;5051453;28;20102;-74
2022/10/17 04:26:42;;;;;;;6.60;4.45;;;;;;;;;;5070611;28;20068;-75
2022/10/17 04:29:08;;;;;;;6.90;4.40;;;;;;;;;;5053516;28;20059;-75
2022/10/17 04:31:34;;;;;;;7.95;4.10;;;;;;;;;;5053037;28;20082;-74
2022/10/17 04:34:13;;;;;;;10.40;3.80;;;;;;;;;;5053876;28;20135;-74
2022/10/17 04:36:38;;;;;;;7.82;4.45;;;;;;;;;;5070808;28;20082;-76
2022/10/17 04:39:04;;;;;;;7.00;4.28;;;;;;;;;;5054128;28;20435;-75
2022/10/17 04:41:30;;;;;;;12.23;4.88;;;;;;;;;;5038700;28;20036;-75
2022/10/17 04:43:56;;;;;;;7.82;4.47;;;;;;;;;;5037932;28;20143;-75
2022/10/17 04:46:22;;;;;;;8.60;4.95;;;;;;;;;;5055803;28;20068;-76
2022/10/17 04:48:48;;;;;;;14.88;4.78;;;;;;;;;;5038523;28;20070;-75
2022/10/17 04:51:14;;;;;;;11.00;4.80;;;;;;;;;;5070612;28;20032;-73
2022/10/17 04:54:00;;;;;;;8.07;4.57;;;;;;;;;;5060152;28;20067;-74
2022/10/17 04:56:26;;;;;;;11.75;5.05;;;;;;;;;;5069981;28;20040;-72
2022/10/17 04:58:52;;;;;;;8.35;4.95;;;;;;;;;;5054001;28;20152;-72
2022/10/17 05:01:20;;;;;;;8.93;5.00;;;;;;;;;;5053267;28;20028;-73
2022/10/17 05:03:50;;;;;;;8.73;4.63;;;;;;;;;;5052686;28;20040;-71
2022/10/17 05:06:17;;;;;;;10.18;5.15;;;;;;;;;;5067928;28;20037;-70
2022/10/17 05:08:48;;;;;;;6.65;4.38;;;;;;;;;;5053253;28;20047;-71
2022/10/17 05:11:22;;;;;;;7.65;4.57;;;;;;;;;;5051965;28;20033;-71
2022/10/17 05:13:54;;;;;;;10.65;4.75;;;;;;;;;;5068858;28;20086;-72
2022/10/17 05:16:21;;;;;;;8.18;4.72;;;;;;;;;;5069676;28;20068;-71
2022/10/17 05:18:52;;;;;;;10.38;4.68;;;;;;;;;;5087312;28;20453;-72
2022/10/17 05:21:17;;;;;;;10.18;4.18;;;;;;;;;;5036214;28;20469;-71
2022/10/17 05:23:44;;;;;;;7.50;4.43;;;;;;;;;;5053515;28;20043;-71
2022/10/17 05:26:10;;;;;;;8.63;4.72;;;;;;;;;;5037121;28;20040;-72
2022/10/17 05:28:36;;;;;;;10.35;5.05;;;;;;;;;;5070365;28;20059;-71
2022/10/17 05:31:06;;;;;;;8.73;4.30;;;;;;;;;;5086868;28;20044;-71
2022/10/17 05:33:32;;;;;;;10.30;4.95;;;;;;;;;;5036675;28;20032;-72
2022/10/17 05:35:58;;;;;;;14.13;5.88;;;;;;;;;;5071209;28;20044;-72
2022/10/17 05:38:23;;;;;;;11.25;4.55;;;;;;;;;;5071468;28;20081;-71
2022/10/17 05:40:49;;;;;;;7.35;4.53;;;;;;;;;;5037257;28;20044;-72
2022/10/17 05:43:15;;;;;;;9.55;4.47;;;;;;;;;;5070112;28;20468;-71
2022/10/17 05:45:41;;;;;;;7.75;4.90;;;;;;;;;;5053891;28;20040;-71
2022/10/17 05:48:12;;;;;;;7.35;4.80;;;;;;;;;;5053937;28;20037;-71
2022/10/17 05:50:38;;;;;;;8.63;4.70;;;;;;;;;;5070368;28;20039;-71
2022/10/17 05:53:09;;;;;;;7.45;4.93;;;;;;;;;;5069992;28;20040;-73
2022/10/17 05:55:39;;;;;;;8.90;4.35;;;;;;;;;;5071095;28;20123;-71
2022/10/17 05:58:05;;;;;;;6.03;4.07;;;;;;;;;;5070962;28;20048;-75
2022/10/17 06:00:36;;;;;;;11.88;4.30;;;;;;;;;;5063923;28;20040;-74
2022/10/17 06:03:02;;;;;;;10.32;4.72;;;;;;;;;;5037026;28;20390;-72
2022/10/17 06:05:28;;;;;;;7.30;4.70;;;;;;;;;;5036234;28;20041;-74
2022/10/17 06:07:55;;;;;;;9.23;4.55;;;;;;;;;;5087707;28;20110;-74
2022/10/17 06:10:21;;;;;;;8.27;3.95;;;;;;;;;;5068388;28;20102;-75
2022/10/17 06:12:47;;;;;;;7.22;4.43;;;;;;;;;;5054784;28;20025;-74
2022/10/17 06:15:14;;;;;;;7.35;4.35;;;;;;;;;;5072706;28;20028;-71
2022/10/17 06:17:44;;;;;;;8.70;4.72;;;;;;;;;;5079327;28;20045;-73
2022/10/17 06:20:10;;;;;;;9.73;4.10;;;;;;;;;;5062840;28;20054;-71
2022/10/17 06:22:35;;;;;;;10.73;4.47;;;;;;;;;;5070466;28;20036;-71
2022/10/17 06:25:05;;;;;;;10.30;4.57;;;;;;;;;;5062561;28;20036;-73
2022/10/17 06:27:31;;;;;;;15.20;5.13;;;;;;;;;;5054334;28;20382;-72
2022/10/17 06:30:06;;;;;;;8.07;4.32;;;;;;;;;;5086549;28;20371;-73
2022/10/17 06:32:31;;;;;;;7.15;4.18;;;;;;;;;;5073226;28;20039;-72
2022/10/17 06:34:57;;;;;;;7.30;4.50;;;;;;;;;;5090399;28;20470;-72
2022/10/17 06:37:23;;;;;;;7.15;4.60;;;;;;;;;;5091907;28;20205;-71
2022/10/17 06:39:51;;;;;;;8.57;4.70;;;;;;;;;;5092693;28;20070;-73
2022/10/17 06:42:20;;;;;;;7.95;4.40;;;;;;;;;;5076761;28;20092;-73
2022/10/17 06:45:07;;;;;;;8.63;4.40;;;;;;;;;;5084809;28;20086;-72
2022/10/17 06:47:51;;;;;;;6.97;4.28;;;;;;;;;;5077530;28;20028;-73
2022/10/17 06:50:33;;;;;;;12.43;4.60;;;;;;;;;;5058906;28;20048;-71
2022/10/17 06:53:10;;;;;;;9.40;4.70;;;;;;;;;;5044656;28;20028;-72
2022/10/17 06:56:01;;;;;;;6.30;3.83;;;;;;;;;;5060824;28;20466;-69
2022/10/17 06:59:05;;;;;;;8.25;4.20;;;;;;;;;;5065590;28;20190;-72
2022/10/17 07:01:35;;;;;;;8.68;4.75;;;;;;;;;;5076233;28;20066;-69
2022/10/17 07:04:02;;;;;;;8.73;4.22;;;;;;;;;;5093074;28;20428;-70
2022/10/17 07:06:29;;;;;;;6.93;4.50;;;;;;;;;;5074729;28;20063;-73
2022/10/17 07:08:58;;;;;;;8.35;4.15;;;;;;;;;;5082403;28;20451;-73
2022/10/17 07:11:24;;;;;;;8.10;4.15;;;;;;;;;;5066174;28;20046;-74
2022/10/17 07:13:51;;;;;;;7.53;4.03;;;;;;;;;;5073385;28;20028;-72
2022/10/17 07:16:17;;;;;;;8.35;4.07;;;;;;;;;;5055969;28;20044;-72
2022/10/17 07:18:48;;;;;;;14.32;5.35;;;;;;;;;;5056426;28;20513;-73
2022/10/17 07:21:15;;;;;;;13.90;5.00;;;;;;;;;;5072098;28;20622;-73
2022/10/17 07:23:40;;;;;;;10.63;4.88;;;;;;;;;;5039654;28;20028;-72
2022/10/17 07:26:07;;;;;;;14.13;4.95;;;;;;;;;;5039811;28;20481;-75
2022/10/17 07:28:40;;;;;;;11.20;4.55;;;;;;;;;;5058240;28;20044;-74
2022/10/17 07:31:20;;;;;;;6.93;4.60;;;;;;;;;;5060029;28;20501;-75
2022/10/17 07:33:45;;;;;;;8.20;4.60;;;;;;;;;;5074961;28;20102;-73
2022/10/17 07:36:11;;;;;;;9.40;4.65;;;;;;;;;;5059619;28;20474;-77
2022/10/17 07:38:38;;;;;;;9.82;4.88;;;;;;;;;;5073920;28;20052;-76
2022/10/17 07:41:05;;;;;;;16.08;5.22;;;;;;;;;;5055883;28;20094;-72
2022/10/17 07:43:31;;;;;;;18.85;4.82;;;;;;;;;;5072816;28;20049;-74
2022/10/17 07:45:59;;;;;;;12.25;5.22;;;;;;;;;;5089359;28;20063;-74
2022/10/17 07:48:25;;;;;;;17.50;4.72;;;;;;;;;;5055633;28;20032;-77
2022/10/17 07:50:51;;;;;;;13.18;5.05;;;;;;;;;;5071908;28;20032;-77
2022/10/17 07:53:17;;;;;;;10.77;4.80;;;;;;;;;;5073347;28;20378;-74
2022/10/17 07:55:45;;;;;;;9.23;4.03;;;;;;;;;;5092608;28;20046;-75
2022/10/17 07:58:11;;;;;;;10.70;4.43;;;;;;;;;;5094519;28;20066;-74
2022/10/17 08:00:37;;;;;;;12.20;4.20;;;;;;;;;;5111951;28;20074;-74
2022/10/17 08:03:03;;;;;;;15.07;4.50;;;;;;;;;;5078300;28;20421;-73
2022/10/17 08:05:28;;;;;;;8.13;4.57;;;;;;;;;;5095764;28;20456;-72
2022/10/17 08:07:54;;;;;;;18.80;5.18;;;;;;;;;;5110876;28;20050;-81
2022/10/17 08:10:21;;;;;;;10.43;3.97;;;;;;;;;;5092191;28;20051;-74
2022/10/17 08:12:47;;;;;;;10.82;4.30;;;;;;;;;;5090798;28;20031;-78
2022/10/17 08:15:12;;;;;;;7.70;4.30;;;;;;;;;;5091598;28;20039;-75
2022/10/17 08:17:38;;;;;;;11.93;5.20;;;;;;;;;;5108657;28;20331;-75
2022/10/17 08:20:04;;;;;;;11.32;4.68;;;;;;;;;;5091950;28;20462;-72
2022/10/17 08:22:30;;;;;;;15.15;5.35;;;;;;;;;;5092373;28;20084;-76
2022/10/17 08:24:56;;;;;;;10.68;4.65;;;;;;;;;;5091589;28;20035;-76
2022/10/17 08:27:23;;;;;;;14.30;4.20;;;;;;;;;;5058777;28;20465;-79
2022/10/17 08:29:52;;;;;;;12.77;4.60;;;;;;;;;;5108844;28;20040;-76
2022/10/17 08:32:23;;;;;;;13.50;4.95;;;;;;;;;;5058162;28;20089;-76
2022/10/17 08:34:49;;;;;;;14.63;5.57;;;;;;;;;;5074034;28;20035;-78
2022/10/17 08:37:15;;;;;;;10.98;3.60;;;;;;;;;;5090909;28;20044;-79
2022/10/17 08:39:43;;;;;;;9.75;4.15;;;;;;;;;;5091876;28;20478;-78
2022/10/17 08:42:11;;;;;;;8.32;3.58;;;;;;;;;;5074044;28;20082;-77
2022/10/17 08:44:52;;;;;;;6.63;3.47;;;;;;;;;;5057117;28;20063;-78
2022/10/17 08:47:38;;;;;;;8.68;3.92;;;;;;;;;;5074203;28;20063;-77
2022/10/17 08:50:10;;;;;;;8.88;4.55;;;;;;;;;;5074268;28;20478;-73
2022/10/17 08:52:39;;;;;;;8.55;3.90;;;;;;;;;;5074584;28;20560;-76
2022/10/17 08:55:15;;;;;;;14.32;4.00;;;;;;;;;;5075984;28;20052;-78
2022/10/17 08:57:41;;;;;;;9.93;3.80;;;;;;;;;;5092736;28;20112;-78
2022/10/17 09:00:13;;;;;;;7.68;3.85;;;;;;;;;;5075197;28;20509;-76
2022/10/17 09:02:48;;;;;;;7.95;4.03;;;;;;;;;;5091178;28;20111;-78
2022/10/17 09:05:14;;;;;;;10.80;4.20;;;;;;;;;;5091984;28;20063;-77
2022/10/17 09:07:54;;;;;;;7.43;4.13;;;;;;;;;;5074263;28;20441;-76
2022/10/17 09:10:27;;;;;;;8.35;4.00;;;;;;;;;;5073527;28;20075;-77
2022/10/17 09:12:55;;;;;;;12.20;4.47;;;;;;;;;;5073126;28;20439;-76
2022/10/17 09:15:22;;;;;;;9.07;4.47;;;;;;;;;;5073830;28;20044;-77
2022/10/17 09:18:00;;;;;;;13.25;4.70;;;;;;;;;;5090637;28;20154;-77
2022/10/17 09:20:29;;;;;;;15.50;4.72;;;;;;;;;;5073832;28;20036;-76
2022/10/17 09:22:57;;;;;;;8.90;4.63;;;;;;;;;;5090809;28;20077;-77
2022/10/17 09:25:23;;;;;;;12.68;5.65;;;;;;;;;;5090523;28;20040;-76
2022/10/17 09:27:51;;;;;;;9.93;4.68;;;;;;;;;;5073477;28;20047;-76
2022/10/17 09:30:20;;;;;;;9.27;5.68;;;;;;;;;;5095365;28;20097;-79
2022/10/17 09:32:46;;;;;;;24.38;7.47;;;;;;;;;;5074429;28;20043;-79
2022/10/17 09:35:15;;;;;;;11.02;7.15;;;;;;;;;;5059605;28;20134;-83
2022/10/17 09:37:41;;;;;;;16.45;7.63;;;;;;;;;;5092831;28;20052;-81
2022/10/17 09:40:10;;;;;;;16.95;8.98;;;;;;;;;;5076347;28;20085;-80
2022/10/17 09:42:36;;;;;;;15.75;8.63;;;;;;;;;;5092937;28;20462;-83
2022/10/17 09:45:32;;;;;;;17.58;9.68;;;;;;;;;;5074691;28;20124;-83
2022/10/17 09:48:04;;;;;;;18.52;9.32;;;;;;;;;;5057843;28;20071;-83
2022/10/17 09:50:30;;;;;;;19.88;9.85;;;;;;;;;;5074228;28;20377;-81
2022/10/17 09:52:59;;;;;;;18.10;10.10;;;;;;;;;;5058453;28;20039;-76
2022/10/17 09:55:24;;;;;;;21.30;10.07;;;;;;;;;;5094866;28;20035;-78
2022/10/17 09:57:57;;;;;;;21.42;10.35;;;;;;;;;;5094604;28;20085;-73
2022/10/17 10:00:27;;;;;;;15.82;9.43;;;;;;;;;;5090455;28;20047;-75
2022/10/17 10:03:16;;;;;;;14.38;8.98;;;;;;;;;;5092176;28;20539;-80
2022/10/17 10:05:42;;;;;;;16.67;9.90;;;;;;;;;;5063320;28;20539;-73
2022/10/17 10:08:15;;;;;;;21.27;11.23;;;;;;;;;;5090524;28;20097;-76
2022/10/17 10:10:44;;;;;;;21.08;10.02;;;;;;;;;;5077705;28;20123;-77
2022/10/17 10:13:13;;;;;;;18.67;10.60;;;;;;;;;;5092446;28;20028;-84
2022/10/17 10:15:43;;;;;;;17.45;10.18;;;;;;;;;;5065820;28;20035;-76
2022/10/17 10:18:24;;;;;;;14.80;9.77;;;;;;;;;;5118266;28;20072;-84
2022/10/17 10:21:08;;;;;;;19.92;9.77;;;;;;;;;;5090704;28;20286;-84
2022/10/17 10:23:38;;;;;;;16.40;9.23;;;;;;;;;;5085406;28;20058;-79
2022/10/17 10:26:24;;;;;;;14.73;9.30;;;;;;;;;;5093319;28;20043;-78
2022/10/17 10:29:00;;;;;;;13.55;7.97;;;;;;;;;;5086924;28;20044;-83
2022/10/17 10:31:28;;;;;;;14.68;7.13;;;;;;;;;;5091099;28;20062;-81
2022/10/17 10:33:53;;;;;;;16.48;7.75;;;;;;;;;;5083137;28;20192;-82
2022/10/17 10:36:21;;;;;;;13.25;7.70;;;;;;;;;;5085594;28;20036;-81
2022/10/17 10:38:55;;;;;;;15.13;7.35;;;;;;;;;;5079938;28;20032;-81
2022/10/17 10:41:21;;;;;;;18.10;8.15;;;;;;;;;;5083100;28;20365;-82
2022/10/17 10:43:48;;;;;;;17.65;8.15;;;;;;;;;;5077423;28;20455;-83
2022/10/17 10:46:21;;;;;;;13.40;6.68;;;;;;;;;;5078379;28;20424;-81
2022/10/17 10:48:57;;;;;;;12.15;7.15;;;;;;;;;;5097775;28;20047;-80
2022/10/17 10:51:26;;;;;;;14.98;7.05;;;;;;;;;;5106097;28;20048;-79
2022/10/17 10:54:02;;;;;;;12.07;6.18;;;;;;;;;;5109243;28;20063;-81
2022/10/17 10:56:29;;;;;;;15.80;6.43;;;;;;;;;;5099221;28;20068;-81
2022/10/17 10:59:01;;;;;;;12.27;6.63;;;;;;;;;;5110155;28;20050;-79
2022/10/17 11:01:49;;;;;;;10.27;6.30;;;;;;;;;;5094805;28;20051;-81
2022/10/17 11:04:20;;;;;;;11.77;5.93;;;;;;;;;;5097146;28;20043;-78
2022/10/17 11:06:47;;;;;;;10.05;6.13;;;;;;;;;;5095504;28;20189;-83
2022/10/17 11:09:33;;;;;;;11.70;5.75;;;;;;;;;;5093943;28;20067;-79
2022/10/17 11:12:10;;;;;;;9.25;6.22;;;;;;;;;;5086109;28;20035;-77
2022/10/17 11:14:45;;;;;;;12.10;6.10;;;;;;;;;;5093126;28;20382;-77
2022/10/17 11:17:11;;;;;;;11.15;6.82;;;;;;;;;;5093887;28;20051;-74
2022/10/17 11:19:43;;;;;;;10.90;6.38;;;;;;;;;;5094519;28;20386;-76
2022/10/17 11:22:15;;;;;;;12.60;6.93;;;;;;;;;;5111200;28;20092;-74
2022/10/17 11:24:47;;;;;;;11.85;7.00;;;;;;;;;;5090421;28;20462;-75
2022/10/17 11:27:12;;;;;;;13.77;7.00;;;;;;;;;;5040662;28;20505;-77
2022/10/17 11:29:39;;;;;;;11.68;7.40;;;;;;;;;;5052428;28;20040;-77
2022/10/17 11:32:14;;;;;;;12.45;6.70;;;;;;;;;;5076153;28;20036;-76
2022/10/17 11:34:44;;;;;;;11.20;7.18;;;;;;;;;;5093206;28;20069;-80
2022/10/17 11:37:16;;;;;;;11.23;7.10;;;;;;;;;;5093359;28;20067;-79
2022/10/17 11:39:48;;;;;;;12.98;7.40;;;;;;;;;;5093482;28;20056;-81
2022/10/17 11:42:19;;;;;;;13.85;7.75;;;;;;;;;;5090459;28;20041;-80
2022/10/17 11:44:48;;;;;;;15.52;7.47;;;;;;;;;;5100954;28;20071;-79
2022/10/17 11:47:23;;;;;;;14.65;8.05;;;;;;;;;;5073164;28;20068;-78
2022/10/17 11:49:57;;;;;;;13.00;7.20;;;;;;;;;;5094239;28;20122;-79
2022/10/17 11:52:34;;;;;;;16.42;7.82;;;;;;;;;;5092680;28;20139;-78
2022/10/17 11:55:08;;;;;;;17.25;8.25;;;;;;;;;;5075398;28;20089;-79
2022/10/17 11:58:03;;;;;;;14.13;8.35;;;;;;;;;;5092410;28;20043;-74
2022/10/17 12:00:53;;;;;;;14.32;8.77;;;;;;;;;;5043205;28;20101;-80
2022/10/17 12:03:30;;;;;;;13.65;8.32;;;;;;;;;;5058105;28;20054;-78
2022/10/17 12:06:02;;;;;;;17.08;8.20;;;;;;;;;;5089808;28;20044;-78
2022/10/17 12:08:37;;;;;;;18.40;8.50;;;;;;;;;;5074411;28;20043;-75
2022/10/17 12:11:10;;;;;;;16.92;8.10;;;;;;;;;;5058459;28;20040;-75
2022/10/17 12:13:35;;;;;;;17.40;8.40;;;;;;;;;;5091086;28;20442;-77
2022/10/17 12:16:16;;;;;;;18.05;8.85;;;;;;;;;;5058995;28;20040;-75
2022/10/17 12:18:41;;;;;;;16.30;9.13;;;;;;;;;;5058631;28;20036;-81
2022/10/17 12:21:07;;;;;;;17.05;8.85;;;;;;;;;;5090425;28;20382;-79
2022/10/17 12:23:35;;;;;;;19.92;9.10;;;;;;;;;;5109902;28;20660;-81
2022/10/17 12:26:02;;;;;;;18.80;9.63;;;;;;;;;;5074999;28;20035;-77
2022/10/17 12:28:36;;;;;;;16.33;9.57;;;;;;;;;;5092098;28;20034;-76
2022/10/17 12:31:02;;;;;;;15.93;9.02;;;;;;;;;;5058726;28;20040;-76
2022/10/17 12:33:47;;;;;;;19.75;9.50;;;;;;;;;;5073990;28;20055;-77
2022/10/17 12:36:15;;;;;;;16.60;8.57;;;;;;;;;;5075759;28;20130;-75
2022/10/17 12:38:44;;;;;;;19.80;8.90;;;;;;;;;;5092192;28;20050;-79
2022/10/17 12:41:10;;;;;;;16.45;9.25;;;;;;;;;;5062876;28;20514;-77
2022/10/17 12:43:37;;;;;;;20.77;9.82;;;;;;;;;;5092883;28;20087;-79
2022/10/17 12:46:03;;;;;;;17.85;9.93;;;;;;;;;;5093700;28;20536;-80
2022/10/17 12:48:32;;;;;;;21.55;10.73;;;;;;;;;;5110243;28;20047;-80
2022/10/17 12:51:01;;;;;;;20.55;11.35;;;;;;;;;;5075700;28;20043;-81
2022/10/17 12:53:35;;;;;;;20.90;10.88;;;;;;;;;;5058591;28;20116;-78
2022/10/17 12:56:01;;;;;;;25.05;11.50;;;;;;;;;;5077207;28;20455;-83
2022/10/17 12:58:27;;;;;;;21.27;10.13;;;;;;;;;;5057942;28;20151;-80
2022/10/17 13:00:54;;;;;;;22.25;10.13;;;;;;;;;;5054659;28;21413;-79
2022/10/17 13:03:25;;;;;;;22.60;10.23;;;;;;;;;;5091839;28;20089;-81
2022/10/17 13:05:55;;;;;;;22.48;10.70;;;;;;;;;;5073511;28;20130;-76
2022/10/17 13:08:28;;;;;;;26.40;10.52;;;;;;;;;;5057352;28;20367;-76
2022/10/17 13:10:54;;;;;;;21.40;10.57;;;;;;;;;;5070282;28;20207;-79
2022/10/17 13:13:21;;;;;;;24.08;10.57;;;;;;;;;;5101555;28;20031;-78
2022/10/17 13:15:51;;;;;;;29.80;11.20;;;;;;;;;;5067361;28;20028;-75
2022/10/17 13:18:19;;;;;;;22.20;10.63;;;;;;;;;;5079016;28;20124;-77
2022/10/17 13:20:53;;;;;;;22.90;9.95;;;;;;;;;;5084779;28;20044;-78
2022/10/17 13:23:27;;;;;;;22.40;10.57;;;;;;;;;;5061531;28;20032;-78
2022/10/17 13:26:02;;;;;;;21.48;10.73;;;;;;;;;;5068660;28;20474;-76
2022/10/17 13:28:28;;;;;;;20.65;10.30;;;;;;;;;;5090761;28;20040;-77
2022/10/17 13:30:54;;;;;;;21.00;11.40;;;;;;;;;;5071061;28;20499;-78
2022/10/17 13:33:46;;;;;;;25.58;11.15;;;;;;;;;;5064611;28;20034;-77
2022/10/17 13:36:14;;;;;;;22.00;10.75;;;;;;;;;;5063390;28;20066;-77
2022/10/17 13:38:40;;;;;;;23.88;10.88;;;;;;;;;;5102201;28;20070;-79
2022/10/17 13:41:10;;;;;;;26.50;12.23;;;;;;;;;;5089057;28;20041;-77
2022/10/17 13:43:36;;;;;;;21.95;10.98;;;;;;;;;;5073709;28;20259;-76
2022/10/17 13:46:04;;;;;;;28.30;11.75;;;;;;;;;;5054238;28;20099;-78
2022/10/17 13:48:31;;;;;;;21.13;9.82;;;;;;;;;;5082821;28;20043;-77
2022/10/17 13:50:58;;;;;;;20.33;10.68;;;;;;;;;;5054238;28;20162;-76
2022/10/17 13:53:35;;;;;;;21.00;10.95;;;;;;;;;;5065702;28;20842;-77
2022/10/17 13:56:03;;;;;;;24.80;11.13;;;;;;;;;;5077110;28;20043;-76
2022/10/17 13:58:39;;;;;;;25.50;10.95;;;;;;;;;;5064475;28;20514;-76
2022/10/17 14:01:08;;;;;;;23.27;10.68;;;;;;;;;;5064531;28;20032;-77
2022/10/17 14:03:37;;;;;;;22.75;9.85;;;;;;;;;;5064287;28;20390;-76
2022/10/17 14:06:03;;;;;;;22.83;11.02;;;;;;;;;;5080419;28;20468;-75
2022/10/17 14:08:30;;;;;;;22.85;11.02;;;;;;;;;;5061431;28;20040;-79
2022/10/17 14:10:57;;;;;;;19.52;10.20;;;;;;;;;;5051069;28;20024;-78
2022/10/17 14:13:27;;;;;;;20.70;10.65;;;;;;;;;;5070657;28;20177;-77
2022/10/17 14:15:54;;;;;;;20.90;11.07;;;;;;;;;;5077215;28;20023;-76
2022/10/17 14:18:25;;;;;;;20.50;10.50;;;;;;;;;;5064042;28;20492;-75
2022/10/17 14:20:51;;;;;;;17.95;9.40;;;;;;;;;;5080156;28;20032;-76
2022/10/17 14:23:36;;;;;;;22.42;10.70;;;;;;;;;;5076078;28;20032;-76
2022/10/17 14:26:17;;;;;;;19.77;9.38;;;;;;;;;;5081125;28;20037;-77
2022/10/17 14:28:45;;;;;;;21.95;10.77;;;;;;;;;;5080757;28;20036;-77
2022/10/17 14:31:24;;;;;;;21.75;9.88;;;;;;;;;;5076706;28;20050;-78
2022/10/17 14:33:50;;;;;;;20.70;10.30;;;;;;;;;;5081680;28;20039;-77
2022/10/17 14:36:16;;;;;;;22.77;9.77;;;;;;;;;;5103961;28;20053;-75
2022/10/17 14:38:46;;;;;;;20.40;9.70;;;;;;;;;;5080707;28;20036;-77
2022/10/17 14:41:20;;;;;;;19.83;10.35;;;;;;;;;;5112907;28;20085;-74
2022/10/17 14:43:50;;;;;;;20.15;9.57;;;;;;;;;;5079173;28;20098;-76
2022/10/17 14:46:19;;;;;;;18.58;10.10;;;;;;;;;;5079852;28;20047;-76
2022/10/17 14:48:46;;;;;;;19.02;10.57;;;;;;;;;;5114052;28;20035;-76
2022/10/17 14:51:16;;;;;;;17.42;9.73;;;;;;;;;;5078360;28;20445;-77